sensor_id;sensor_type;location;lat;lon;timestamp;temperature;humidity
13375;DHT22;6756;51.354;15.754;2023-06-10T00:01:49;13.30;99.90
13375;DHT22;6756;51.354;15.754;2023-06-10T00:05:50;13.20;99.90
13375;DHT22;6756;51.354;15.754;2023-06-10T00:09:59;13.10;99.90
13375;DHT22;6756;51.354;15.754;2023-06-10T00:14:00;13.10;99.90
13375;DHT22;6756;51.354;15.754;2023-06-10T00:18:01;13.00;99.90
13375;DHT22;6756;51.354;15.754;2023-06-10T00:22:07;13.00;99.90
13375;DHT22;6756;51.354;15.754;2023-06-10T00:26:09;12.90;99.90
13375;DHT22;6756;51.354;15.754;2023-06-10T00:30:11;12.80;99.90
13375;DHT22;6756;51.354;15.754;2023-06-10T00:34:12;12.70;99.90
13375;DHT22;6756;51.354;15.754;2023-06-10T00:38:14;12.70;99.90
13375;DHT22;6756;51.354;15.754;2023-06-10T00:42:18;12.60;99.90
13375;DHT22;6756;51.354;15.754;2023-06-10T00:46:27;12.60;99.90
13375;DHT22;6756;51.354;15.754;2023-06-10T00:50:32;12.60;99.90
13375;DHT22;6756;51.354;15.754;2023-06-10T00:54:35;12.60;99.90
13375;DHT22;6756;51.354;15.754;2023-06-10T00:58:39;12.50;99.90
13375;DHT22;6756;51.354;15.754;2023-06-10T01:02:41;12.50;99.90
13375;DHT22;6756;51.354;15.754;2023-06-10T01:10:57;12.40;99.90
13375;DHT22;6756;51.354;15.754;2023-06-10T01:15:02;12.30;99.90
13375;DHT22;6756;51.354;15.754;2023-06-10T01:19:04;12.30;99.90
13375;DHT22;6756;51.354;15.754;2023-06-10T01:23:07;12.30;99.90
13375;DHT22;6756;51.354;15.754;2023-06-10T01:27:12;12.20;99.90
13375;DHT22;6756;51.354;15.754;2023-06-10T01:31:31;12.20;99.90
13375;DHT22;6756;51.354;15.754;2023-06-10T01:35:37;12.20;99.90
13375;DHT22;6756;51.354;15.754;2023-06-10T01:39:39;12.20;99.90
13375;DHT22;6756;51.354;15.754;2023-06-10T01:43:43;12.10;99.90
13375;DHT22;6756;51.354;15.754;2023-06-10T01:47:51;12.00;99.90
13375;DHT22;6756;51.354;15.754;2023-06-10T01:51:52;12.00;99.90
13375;DHT22;6756;51.354;15.754;2023-06-10T01:55:53;12.00;99.90
13375;DHT22;6756;51.354;15.754;2023-06-10T01:59:57;12.00;99.90
13375;DHT22;6756;51.354;15.754;2023-06-10T02:03:58;12.00;99.90
13375;DHT22;6756;51.354;15.754;2023-06-10T02:07:59;12.00;99.90
13375;DHT22;6756;51.354;15.754;2023-06-10T02:12:04;11.90;99.90
13375;DHT22;6756;51.354;15.754;2023-06-10T02:16:06;12.00;99.90
13375;DHT22;6756;51.354;15.754;2023-06-10T02:20:13;11.90;99.90
13375;DHT22;6756;51.354;15.754;2023-06-10T02:24:17;11.90;99.90
13375;DHT22;6756;51.354;15.754;2023-06-10T02:28:18;11.80;99.90
13375;DHT22;6756;51.354;15.754;2023-06-10T02:32:19;11.70;99.90
13375;DHT22;6756;51.354;15.754;2023-06-10T02:36:20;11.70;99.90
13375;DHT22;6756;51.354;15.754;2023-06-10T02:40:22;11.70;99.90
13375;DHT22;6756;51.354;15.754;2023-06-10T02:44:23;11.70;99.90
13375;DHT22;6756;51.354;15.754;2023-06-10T02:48:24;11.70;99.90
13375;DHT22;6756;51.354;15.754;2023-06-10T02:52:25;11.70;99.90
13375;DHT22;6756;51.354;15.754;2023-06-10T02:56:26;11.70;99.90
13375;DHT22;6756;51.354;15.754;2023-06-10T03:00:27;11.60;99.90
13375;DHT22;6756;51.354;15.754;2023-06-10T03:04:29;11.70;99.90
13375;DHT22;6756;51.354;15.754;2023-06-10T03:08:31;11.80;99.90
13375;DHT22;6756;51.354;15.754;2023-06-10T03:12:35;11.90;99.90
13375;DHT22;6756;51.354;15.754;2023-06-10T03:16:35;12.20;99.90
13375;DHT22;6756;51.354;15.754;2023-06-10T03:20:40;12.60;99.90
13375;DHT22;6756;51.354;15.754;2023-06-10T03:24:42;13.00;99.90
13375;DHT22;6756;51.354;15.754;2023-06-10T03:28:44;13.60;99.90
13375;DHT22;6756;51.354;15.754;2023-06-10T03:32:45;14.20;99.90
13375;DHT22;6756;51.354;15.754;2023-06-10T03:36:46;15.00;99.90
13375;DHT22;6756;51.354;15.754;2023-06-10T03:40:47;15.90;99.90
13375;DHT22;6756;51.354;15.754;2023-06-10T03:44:48;16.80;99.90
13375;DHT22;6756;51.354;15.754;2023-06-10T03:48:49;17.50;99.90
13375;DHT22;6756;51.354;15.754;2023-06-10T03:52:50;18.20;99.90
13375;DHT22;6756;51.354;15.754;2023-06-10T03:56:51;18.50;99.90
13375;DHT22;6756;51.354;15.754;2023-06-10T04:00:52;18.80;2.40
13375;DHT22;6756;51.354;15.754;2023-06-10T04:04:53;19.10;99.90
13375;DHT22;6756;51.354;15.754;2023-06-10T04:08:55;19.50;99.90
13375;DHT22;6756;51.354;15.754;2023-06-10T04:12:57;19.80;99.90
13375;DHT22;6756;51.354;15.754;2023-06-10T04:16:58;19.80;99.90
13375;DHT22;6756;51.354;15.754;2023-06-10T04:20:59;19.80;97.80
13375;DHT22;6756;51.354;15.754;2023-06-10T04:25:00;19.80;87.80
13375;DHT22;6756;51.354;15.754;2023-06-10T04:29:01;19.60;82.30
13375;DHT22;6756;51.354;15.754;2023-06-10T04:33:02;19.50;94.20
13375;DHT22;6756;51.354;15.754;2023-06-10T04:37:04;19.80;90.40
13375;DHT22;6756;51.354;15.754;2023-06-10T04:41:05;20.50;72.20
13375;DHT22;6756;51.354;15.754;2023-06-10T04:45:07;20.90;34.00
13375;DHT22;6756;51.354;15.754;2023-06-10T04:49:16;21.10;18.20
13375;DHT22;6756;51.354;15.754;2023-06-10T04:53:17;21.20;6.70
13375;DHT22;6756;51.354;15.754;2023-06-10T04:57:19;21.50;4.50
13375;DHT22;6756;51.354;15.754;2023-06-10T05:01:23;21.60;1.00
13375;DHT22;6756;51.354;15.754;2023-06-10T05:05:24;21.60;1.00
13375;DHT22;6756;51.354;15.754;2023-06-10T05:09:25;21.40;8.70
13375;DHT22;6756;51.354;15.754;2023-06-10T05:13:26;20.90;62.80
13375;DHT22;6756;51.354;15.754;2023-06-10T05:17:28;20.40;99.90
13375;DHT22;6756;51.354;15.754;2023-06-10T05:21:29;19.80;99.90
13375;DHT22;6756;51.354;15.754;2023-06-10T05:25:33;19.40;99.90
13375;DHT22;6756;51.354;15.754;2023-06-10T05:29:34;18.90;1.00
13375;DHT22;6756;51.354;15.754;2023-06-10T05:33:35;18.80;1.00
13375;DHT22;6756;51.354;15.754;2023-06-10T05:37:36;18.80;1.00
13375;DHT22;6756;51.354;15.754;2023-06-10T05:41:37;18.80;1.00
13375;DHT22;6756;51.354;15.754;2023-06-10T05:45:40;18.70;99.40
13375;DHT22;6756;51.354;15.754;2023-06-10T05:49:41;18.70;73.50
13375;DHT22;6756;51.354;15.754;2023-06-10T05:53:42;18.80;4.30
13375;DHT22;6756;51.354;15.754;2023-06-10T05:57:43;18.80;1.00
13375;DHT22;6756;51.354;15.754;2023-06-10T06:01:44;18.80;1.00
13375;DHT22;6756;51.354;15.754;2023-06-10T06:05:48;18.80;1.00
13375;DHT22;6756;51.354;15.754;2023-06-10T06:09:49;18.90;1.00
13375;DHT22;6756;51.354;15.754;2023-06-10T06:13:49;19.10;1.00
13375;DHT22;6756;51.354;15.754;2023-06-10T06:17:51;19.30;1.00
13375;DHT22;6756;51.354;15.754;2023-06-10T06:21:56;19.50;1.00
13375;DHT22;6756;51.354;15.754;2023-06-10T06:25:57;19.90;99.90
13375;DHT22;6756;51.354;15.754;2023-06-10T06:30:00;20.10;99.90
13375;DHT22;6756;51.354;15.754;2023-06-10T06:34:01;20.30;99.90
13375;DHT22;6756;51.354;15.754;2023-06-10T06:38:03;20.50;99.90
13375;DHT22;6756;51.354;15.754;2023-06-10T06:42:05;20.80;99.90
13375;DHT22;6756;51.354;15.754;2023-06-10T06:46:06;21.10;99.90
13375;DHT22;6756;51.354;15.754;2023-06-10T06:50:07;21.40;99.90
13375;DHT22;6756;51.354;15.754;2023-06-10T06:54:08;21.60;71.40
13375;DHT22;6756;51.354;15.754;2023-06-10T06:58:12;21.90;40.20
13375;DHT22;6756;51.354;15.754;2023-06-10T07:02:13;22.20;15.80
13375;DHT22;6756;51.354;15.754;2023-06-10T07:06:15;22.40;1.00
13375;DHT22;6756;51.354;15.754;2023-06-10T07:10:17;22.40;6.80
13375;DHT22;6756;51.354;15.754;2023-06-10T07:14:18;22.40;17.40
13375;DHT22;6756;51.354;15.754;2023-06-10T07:18:21;22.40;1.00
13375;DHT22;6756;51.354;15.754;2023-06-10T07:22:25;22.40;1.90
13375;DHT22;6756;51.354;15.754;2023-06-10T07:26:27;22.40;1.00
13375;DHT22;6756;51.354;15.754;2023-06-10T07:30:28;22.40;1.00
13375;DHT22;6756;51.354;15.754;2023-06-10T07:34:30;22.40;2.20
13375;DHT22;6756;51.354;15.754;2023-06-10T07:38:31;22.50;4.00
13375;DHT22;6756;51.354;15.754;2023-06-10T07:42:35;22.50;13.00
13375;DHT22;6756;51.354;15.754;2023-06-10T07:46:38;22.60;1.20
13375;DHT22;6756;51.354;15.754;2023-06-10T07:50:39;22.50;12.30
13375;DHT22;6756;51.354;15.754;2023-06-10T07:54:43;22.60;30.00
13375;DHT22;6756;51.354;15.754;2023-06-10T07:58:44;22.60;40.10
13375;DHT22;6756;51.354;15.754;2023-06-10T08:02:45;22.60;54.00
13375;DHT22;6756;51.354;15.754;2023-06-10T08:11:28;22.80;1.00
13375;DHT22;6756;51.354;15.754;2023-06-10T08:15:34;22.70;1.00
13375;DHT22;6756;51.354;15.754;2023-06-10T08:19:37;22.80;1.00
13375;DHT22;6756;51.354;15.754;2023-06-10T08:23:38;22.90;1.00
13375;DHT22;6756;51.354;15.754;2023-06-10T08:27:40;22.90;1.00
13375;DHT22;6756;51.354;15.754;2023-06-10T08:31:44;23.10;1.00
13375;DHT22;6756;51.354;15.754;2023-06-10T08:35:51;23.50;1.00
13375;DHT22;6756;51.354;15.754;2023-06-10T08:39:52;23.70;1.00
13375;DHT22;6756;51.354;15.754;2023-06-10T08:44:29;23.90;1.00
13375;DHT22;6756;51.354;15.754;2023-06-10T08:48:34;23.90;1.00
13375;DHT22;6756;51.354;15.754;2023-06-10T08:52:42;24.00;1.00
13375;DHT22;6756;51.354;15.754;2023-06-10T08:56:45;24.00;1.00
13375;DHT22;6756;51.354;15.754;2023-06-10T09:00:49;23.80;1.00
13375;DHT22;6756;51.354;15.754;2023-06-10T09:04:50;23.70;1.00
13375;DHT22;6756;51.354;15.754;2023-06-10T09:08:52;23.50;1.00
13375;DHT22;6756;51.354;15.754;2023-06-10T09:12:54;23.60;1.00
13375;DHT22;6756;51.354;15.754;2023-06-10T09:16:56;23.60;1.00
13375;DHT22;6756;51.354;15.754;2023-06-10T09:20:58;23.60;1.00
13375;DHT22;6756;51.354;15.754;2023-06-10T09:25:10;23.90;1.00
13375;DHT22;6756;51.354;15.754;2023-06-10T09:29:14;24.20;1.00
13375;DHT22;6756;51.354;15.754;2023-06-10T09:33:15;24.30;1.00
13375;DHT22;6756;51.354;15.754;2023-06-10T09:37:29;24.30;1.00
13375;DHT22;6756;51.354;15.754;2023-06-10T09:41:40;24.50;1.00
13375;DHT22;6756;51.354;15.754;2023-06-10T09:45:41;24.50;1.00
13375;DHT22;6756;51.354;15.754;2023-06-10T09:49:44;24.40;1.00
13375;DHT22;6756;51.354;15.754;2023-06-10T09:53:51;24.40;1.00
13375;DHT22;6756;51.354;15.754;2023-06-10T09:57:53;24.60;1.00
13375;DHT22;6756;51.354;15.754;2023-06-10T10:01:55;24.80;1.00
13375;DHT22;6756;51.354;15.754;2023-06-10T10:06:00;24.90;1.00
13375;DHT22;6756;51.354;15.754;2023-06-10T10:10:01;25.00;1.00
13375;DHT22;6756;51.354;15.754;2023-06-10T10:14:04;24.90;1.00
13375;DHT22;6756;51.354;15.754;2023-06-10T10:18:09;24.90;1.00
13375;DHT22;6756;51.354;15.754;2023-06-10T10:22:25;24.80;1.00
13375;DHT22;6756;51.354;15.754;2023-06-10T10:26:30;24.80;1.00
13375;DHT22;6756;51.354;15.754;2023-06-10T10:30:38;24.70;1.00
13375;DHT22;6756;51.354;15.754;2023-06-10T10:34:50;24.80;1.00
13375;DHT22;6756;51.354;15.754;2023-06-10T10:38:54;25.00;1.00
13375;DHT22;6756;51.354;15.754;2023-06-10T10:43:03;25.30;1.00
13375;DHT22;6756;51.354;15.754;2023-06-10T10:47:04;25.70;1.00
13375;DHT22;6756;51.354;15.754;2023-06-10T10:51:09;26.00;1.00
13375;DHT22;6756;51.354;15.754;2023-06-10T10:55:13;26.30;1.00
13375;DHT22;6756;51.354;15.754;2023-06-10T10:59:14;26.60;1.00
13375;DHT22;6756;51.354;15.754;2023-06-10T11:03:19;26.60;1.00
13375;DHT22;6756;51.354;15.754;2023-06-10T11:07:20;26.50;1.00
13375;DHT22;6756;51.354;15.754;2023-06-10T11:11:25;26.50;1.00
13375;DHT22;6756;51.354;15.754;2023-06-10T11:15:28;26.60;1.00
13375;DHT22;6756;51.354;15.754;2023-06-10T11:19:40;26.90;1.00
13375;DHT22;6756;51.354;15.754;2023-06-10T11:23:47;27.20;1.00
13375;DHT22;6756;51.354;15.754;2023-06-10T11:27:51;27.30;1.00
13375;DHT22;6756;51.354;15.754;2023-06-10T11:31:52;27.30;1.00
13375;DHT22;6756;51.354;15.754;2023-06-10T11:35:56;27.20;1.00
13375;DHT22;6756;51.354;15.754;2023-06-10T11:39:59;27.40;1.00
13375;DHT22;6756;51.354;15.754;2023-06-10T11:44:11;27.50;1.00
13375;DHT22;6756;51.354;15.754;2023-06-10T11:48:13;27.60;1.00
13375;DHT22;6756;51.354;15.754;2023-06-10T11:52:14;27.60;1.00
13375;DHT22;6756;51.354;15.754;2023-06-10T11:56:25;27.70;1.00
13375;DHT22;6756;51.354;15.754;2023-06-10T12:00:27;28.00;1.00
13375;DHT22;6756;51.354;15.754;2023-06-10T12:04:28;28.40;1.00
13375;DHT22;6756;51.354;15.754;2023-06-10T12:08:30;28.50;1.00
13375;DHT22;6756;51.354;15.754;2023-06-10T12:12:34;28.50;99.90
13375;DHT22;6756;51.354;15.754;2023-06-10T12:16:35;28.50;99.90
13375;DHT22;6756;51.354;15.754;2023-06-10T12:20:36;28.40;99.90
13375;DHT22;6756;51.354;15.754;2023-06-10T12:25:01;28.40;99.90
13375;DHT22;6756;51.354;15.754;2023-06-10T12:29:32;28.20;99.90
13375;DHT22;6756;51.354;15.754;2023-06-10T12:33:33;28.30;99.90
13375;DHT22;6756;51.354;15.754;2023-06-10T12:37:35;28.40;99.90
13375;DHT22;6756;51.354;15.754;2023-06-10T12:41:37;28.50;99.90
13375;DHT22;6756;51.354;15.754;2023-06-10T12:45:42;28.60;99.90
13375;DHT22;6756;51.354;15.754;2023-06-10T12:49:52;28.50;99.90
13375;DHT22;6756;51.354;15.754;2023-06-10T12:53:53;28.40;99.90
13375;DHT22;6756;51.354;15.754;2023-06-10T12:57:54;28.40;99.90
13375;DHT22;6756;51.354;15.754;2023-06-10T13:01:55;28.30;99.90
13375;DHT22;6756;51.354;15.754;2023-06-10T13:05:56;28.10;99.90
13375;DHT22;6756;51.354;15.754;2023-06-10T13:09:57;27.80;99.90
13375;DHT22;6756;51.354;15.754;2023-06-10T13:13:58;27.60;99.90
13375;DHT22;6756;51.354;15.754;2023-06-10T13:18:00;27.60;99.90
13375;DHT22;6756;51.354;15.754;2023-06-10T13:22:01;27.80;99.90
13375;DHT22;6756;51.354;15.754;2023-06-10T13:26:02;28.10;99.90
13375;DHT22;6756;51.354;15.754;2023-06-10T13:30:04;28.10;99.90
13375;DHT22;6756;51.354;15.754;2023-06-10T13:34:06;28.10;99.90
13375;DHT22;6756;51.354;15.754;2023-06-10T13:38:07;28.20;99.90
13375;DHT22;6756;51.354;15.754;2023-06-10T13:42:08;28.10;99.90
13375;DHT22;6756;51.354;15.754;2023-06-10T13:46:09;28.30;99.90
13375;DHT22;6756;51.354;15.754;2023-06-10T13:50:10;28.60;99.90
13375;DHT22;6756;51.354;15.754;2023-06-10T13:54:12;28.70;99.90
13375;DHT22;6756;51.354;15.754;2023-06-10T13:58:15;28.80;99.90
13375;DHT22;6756;51.354;15.754;2023-06-10T14:02:16;28.90;99.90
13375;DHT22;6756;51.354;15.754;2023-06-10T14:06:17;28.80;99.90
13375;DHT22;6756;51.354;15.754;2023-06-10T14:10:19;28.70;99.90
13375;DHT22;6756;51.354;15.754;2023-06-10T14:14:20;28.60;99.90
13375;DHT22;6756;51.354;15.754;2023-06-10T14:18:21;28.50;99.90
13375;DHT22;6756;51.354;15.754;2023-06-10T14:22:22;28.60;99.90
13375;DHT22;6756;51.354;15.754;2023-06-10T14:26:23;28.90;99.90
13375;DHT22;6756;51.354;15.754;2023-06-10T14:30:24;28.90;99.90
13375;DHT22;6756;51.354;15.754;2023-06-10T14:34:25;28.40;99.90
13375;DHT22;6756;51.354;15.754;2023-06-10T14:38:29;28.20;99.90
13375;DHT22;6756;51.354;15.754;2023-06-10T14:42:33;28.30;99.90
13375;DHT22;6756;51.354;15.754;2023-06-10T14:46:34;28.30;99.90
13375;DHT22;6756;51.354;15.754;2023-06-10T14:50:35;28.20;99.90
13375;DHT22;6756;51.354;15.754;2023-06-10T14:54:36;28.20;99.90
13375;DHT22;6756;51.354;15.754;2023-06-10T14:58:37;28.00;99.90
13375;DHT22;6756;51.354;15.754;2023-06-10T15:02:41;27.90;99.90
13375;DHT22;6756;51.354;15.754;2023-06-10T15:06:44;27.70;99.90
13375;DHT22;6756;51.354;15.754;2023-06-10T15:10:51;27.80;99.90
13375;DHT22;6756;51.354;15.754;2023-06-10T15:14:55;27.80;99.90
13375;DHT22;6756;51.354;15.754;2023-06-10T15:18:56;27.90;99.90
13375;DHT22;6756;51.354;15.754;2023-06-10T15:22:57;27.80;99.90
13375;DHT22;6756;51.354;15.754;2023-06-10T15:26:58;27.80;99.90
13375;DHT22;6756;51.354;15.754;2023-06-10T15:30:59;27.70;99.90
13375;DHT22;6756;51.354;15.754;2023-06-10T15:35:03;27.70;99.90
13375;DHT22;6756;51.354;15.754;2023-06-10T15:39:05;27.60;99.90
13375;DHT22;6756;51.354;15.754;2023-06-10T15:43:10;27.60;99.90
13375;DHT22;6756;51.354;15.754;2023-06-10T15:47:11;27.70;99.90
13375;DHT22;6756;51.354;15.754;2023-06-10T15:51:12;27.80;99.90
13375;DHT22;6756;51.354;15.754;2023-06-10T15:55:13;27.80;99.90
13375;DHT22;6756;51.354;15.754;2023-06-10T15:59:14;27.60;99.90
13375;DHT22;6756;51.354;15.754;2023-06-10T16:03:15;27.50;99.90
13375;DHT22;6756;51.354;15.754;2023-06-10T16:07:16;27.50;99.90
13375;DHT22;6756;51.354;15.754;2023-06-10T16:11:17;27.50;99.90
13375;DHT22;6756;51.354;15.754;2023-06-10T16:15:21;27.50;99.90
13375;DHT22;6756;51.354;15.754;2023-06-10T16:19:24;27.50;99.90
13375;DHT22;6756;51.354;15.754;2023-06-10T16:23:25;27.50;99.90
13375;DHT22;6756;51.354;15.754;2023-06-10T16:27:26;27.30;99.90
13375;DHT22;6756;51.354;15.754;2023-06-10T16:31:27;27.20;99.90
13375;DHT22;6756;51.354;15.754;2023-06-10T16:35:28;27.10;99.90
13375;DHT22;6756;51.354;15.754;2023-06-10T16:39:29;27.00;99.90
13375;DHT22;6756;51.354;15.754;2023-06-10T16:43:30;27.10;99.90
13375;DHT22;6756;51.354;15.754;2023-06-10T16:47:31;27.10;99.90
13375;DHT22;6756;51.354;15.754;2023-06-10T16:51:33;27.10;99.90
13375;DHT22;6756;51.354;15.754;2023-06-10T16:55:34;27.00;99.90
13375;DHT22;6756;51.354;15.754;2023-06-10T16:59:35;26.90;99.90
13375;DHT22;6756;51.354;15.754;2023-06-10T17:03:36;26.80;99.90
13375;DHT22;6756;51.354;15.754;2023-06-10T17:07:39;26.70;99.90
13375;DHT22;6756;51.354;15.754;2023-06-10T17:11:40;26.70;99.90
13375;DHT22;6756;51.354;15.754;2023-06-10T17:15:41;26.90;99.90
13375;DHT22;6756;51.354;15.754;2023-06-10T17:19:42;27.40;99.90
13375;DHT22;6756;51.354;15.754;2023-06-10T17:23:44;28.00;99.90
13375;DHT22;6756;51.354;15.754;2023-06-10T17:27:45;28.40;99.90
13375;DHT22;6756;51.354;15.754;2023-06-10T17:31:46;28.80;99.90
13375;DHT22;6756;51.354;15.754;2023-06-10T17:35:47;29.10;99.90
13375;DHT22;6756;51.354;15.754;2023-06-10T17:39:49;29.10;99.90
13375;DHT22;6756;51.354;15.754;2023-06-10T17:43:50;29.10;99.90
13375;DHT22;6756;51.354;15.754;2023-06-10T17:47:52;29.20;99.90
13375;DHT22;6756;51.354;15.754;2023-06-10T17:51:53;29.20;99.90
13375;DHT22;6756;51.354;15.754;2023-06-10T17:55:54;29.20;99.90
13375;DHT22;6756;51.354;15.754;2023-06-10T17:59:55;29.20;99.90
13375;DHT22;6756;51.354;15.754;2023-06-10T18:03:56;29.30;99.90
13375;DHT22;6756;51.354;15.754;2023-06-10T18:07:58;29.30;99.90
13375;DHT22;6756;51.354;15.754;2023-06-10T18:11:59;29.10;99.90
13375;DHT22;6756;51.354;15.754;2023-06-10T18:16:01;28.90;99.90
13375;DHT22;6756;51.354;15.754;2023-06-10T18:20:05;28.70;99.90
13375;DHT22;6756;51.354;15.754;2023-06-10T18:24:08;28.40;99.90
13375;DHT22;6756;51.354;15.754;2023-06-10T18:28:09;28.10;99.90
13375;DHT22;6756;51.354;15.754;2023-06-10T18:32:10;27.60;99.90
13375;DHT22;6756;51.354;15.754;2023-06-10T18:36:12;27.30;99.90
13375;DHT22;6756;51.354;15.754;2023-06-10T18:40:15;27.00;99.90
13375;DHT22;6756;51.354;15.754;2023-06-10T18:44:43;26.50;99.90
13375;DHT22;6756;51.354;15.754;2023-06-10T18:48:46;26.00;99.90
13375;DHT22;6756;51.354;15.754;2023-06-10T18:52:50;25.40;99.90
13375;DHT22;6756;51.354;15.754;2023-06-10T18:56:51;24.80;99.90
13375;DHT22;6756;51.354;15.754;2023-06-10T19:00:52;24.30;99.90
13375;DHT22;6756;51.354;15.754;2023-06-10T19:04:53;23.70;99.90
13375;DHT22;6756;51.354;15.754;2023-06-10T19:08:55;23.20;99.90
13375;DHT22;6756;51.354;15.754;2023-06-10T19:12:56;22.80;99.90
13375;DHT22;6756;51.354;15.754;2023-06-10T19:16:57;22.40;99.90
13375;DHT22;6756;51.354;15.754;2023-06-10T19:20:58;22.10;99.90
13375;DHT22;6756;51.354;15.754;2023-06-10T19:25:01;21.80;99.90
13375;DHT22;6756;51.354;15.754;2023-06-10T19:29:02;21.50;99.90
13375;DHT22;6756;51.354;15.754;2023-06-10T19:33:03;21.30;99.90
13375;DHT22;6756;51.354;15.754;2023-06-10T19:37:04;21.10;99.90
13375;DHT22;6756;51.354;15.754;2023-06-10T19:41:05;20.90;99.90
13375;DHT22;6756;51.354;15.754;2023-06-10T19:45:09;20.70;99.90
13375;DHT22;6756;51.354;15.754;2023-06-10T19:49:13;20.50;99.90
13375;DHT22;6756;51.354;15.754;2023-06-10T19:53:16;20.30;99.90
13375;DHT22;6756;51.354;15.754;2023-06-10T19:57:17;20.00;99.90
13375;DHT22;6756;51.354;15.754;2023-06-10T20:01:18;19.80;99.90
13375;DHT22;6756;51.354;15.754;2023-06-10T20:05:19;19.60;99.90
13375;DHT22;6756;51.354;15.754;2023-06-10T20:09:20;19.40;99.90
13375;DHT22;6756;51.354;15.754;2023-06-10T20:13:24;19.10;99.90
13375;DHT22;6756;51.354;15.754;2023-06-10T20:17:25;19.00;99.90
13375;DHT22;6756;51.354;15.754;2023-06-10T20:21:26;18.70;99.90
13375;DHT22;6756;51.354;15.754;2023-06-10T20:25:27;18.50;99.90
13375;DHT22;6756;51.354;15.754;2023-06-10T20:29:30;18.20;99.90
13375;DHT22;6756;51.354;15.754;2023-06-10T20:33:34;17.80;99.90
13375;DHT22;6756;51.354;15.754;2023-06-10T20:37:35;17.50;99.90
13375;DHT22;6756;51.354;15.754;2023-06-10T20:41:36;17.10;99.90
13375;DHT22;6756;51.354;15.754;2023-06-10T20:45:38;16.70;99.90
13375;DHT22;6756;51.354;15.754;2023-06-10T20:49:39;16.40;99.90
13375;DHT22;6756;51.354;15.754;2023-06-10T20:53:40;16.20;99.90
13375;DHT22;6756;51.354;15.754;2023-06-10T20:57:42;15.90;99.90
13375;DHT22;6756;51.354;15.754;2023-06-10T21:01:43;15.60;99.90
13375;DHT22;6756;51.354;15.754;2023-06-10T21:05:44;15.40;99.90
13375;DHT22;6756;51.354;15.754;2023-06-10T21:09:45;15.20;99.90
13375;DHT22;6756;51.354;15.754;2023-06-10T21:13:49;15.00;99.90
13375;DHT22;6756;51.354;15.754;2023-06-10T21:17:50;14.80;99.90
13375;DHT22;6756;51.354;15.754;2023-06-10T21:21:54;14.60;99.90
13375;DHT22;6756;51.354;15.754;2023-06-10T21:25:55;14.40;99.90
13375;DHT22;6756;51.354;15.754;2023-06-10T21:29:56;14.30;99.90
13375;DHT22;6756;51.354;15.754;2023-06-10T21:33:57;14.10;1.00
13375;DHT22;6756;51.354;15.754;2023-06-10T21:37:58;14.00;1.00
13375;DHT22;6756;51.354;15.754;2023-06-10T21:41:59;13.80;1.00
13375;DHT22;6756;51.354;15.754;2023-06-10T21:46:00;13.70;1.00
13375;DHT22;6756;51.354;15.754;2023-06-10T21:50:09;13.60;1.00
13375;DHT22;6756;51.354;15.754;2023-06-10T21:54:11;13.60;1.00
13375;DHT22;6756;51.354;15.754;2023-06-10T21:58:12;13.60;1.00
13375;DHT22;6756;51.354;15.754;2023-06-10T22:02:13;13.60;1.00
13375;DHT22;6756;51.354;15.754;2023-06-10T22:06:15;13.70;1.00
13375;DHT22;6756;51.354;15.754;2023-06-10T22:10:22;13.70;1.00
13375;DHT22;6756;51.354;15.754;2023-06-10T22:14:23;13.60;1.00
13375;DHT22;6756;51.354;15.754;2023-06-10T22:18:27;13.40;1.00
13375;DHT22;6756;51.354;15.754;2023-06-10T22:22:28;13.30;1.00
13375;DHT22;6756;51.354;15.754;2023-06-10T22:26:29;13.10;1.00
13375;DHT22;6756;51.354;15.754;2023-06-10T22:30:30;12.90;1.00
13375;DHT22;6756;51.354;15.754;2023-06-10T22:34:31;12.80;1.00
13375;DHT22;6756;51.354;15.754;2023-06-10T22:38:32;12.80;1.00
13375;DHT22;6756;51.354;15.754;2023-06-10T22:42:33;12.70;1.00
13375;DHT22;6756;51.354;15.754;2023-06-10T22:46:34;12.60;1.00
13375;DHT22;6756;51.354;15.754;2023-06-10T22:50:36;12.40;1.00
13375;DHT22;6756;51.354;15.754;2023-06-10T22:54:37;12.30;1.00
13375;DHT22;6756;51.354;15.754;2023-06-10T22:58:38;12.20;1.00
13375;DHT22;6756;51.354;15.754;2023-06-10T23:02:38;12.10;1.00
13375;DHT22;6756;51.354;15.754;2023-06-10T23:06:43;12.10;1.00
13375;DHT22;6756;51.354;15.754;2023-06-10T23:10:44;12.00;1.00
13375;DHT22;6756;51.354;15.754;2023-06-10T23:14:45;11.90;1.00
13375;DHT22;6756;51.354;15.754;2023-06-10T23:18:46;11.90;1.00
13375;DHT22;6756;51.354;15.754;2023-06-10T23:22:49;11.80;1.00
13375;DHT22;6756;51.354;15.754;2023-06-10T23:26:53;11.80;1.00
13375;DHT22;6756;51.354;15.754;2023-06-10T23:30:55;11.90;1.00
13375;DHT22;6756;51.354;15.754;2023-06-10T23:34:56;11.90;1.00
13375;DHT22;6756;51.354;15.754;2023-06-10T23:38:57;11.90;1.00
13375;DHT22;6756;51.354;15.754;2023-06-10T23:42:58;11.90;1.00
13375;DHT22;6756;51.354;15.754;2023-06-10T23:46:59;11.90;1.00
13375;DHT22;6756;51.354;15.754;2023-06-10T23:51:00;11.90;1.00
13375;DHT22;6756;51.354;15.754;2023-06-10T23:55:04;11.90;1.00
13375;DHT22;6756;51.354;15.754;2023-06-10T23:59:06;11.80;1.00
